sensor_id;sensor_type;location;lat;lon;timestamp;P1;durP1;ratioP1;P2;durP2;ratioP2
25559;SDS011;13450;49.374;8.584;2024-01-11T00:01:21;16.40;;;5.55;;
25559;SDS011;13450;49.374;8.584;2024-01-11T00:03:46;18.02;;;6.32;;
25559;SDS011;13450;49.374;8.584;2024-01-11T00:06:11;21.38;;;5.82;;
25559;SDS011;13450;49.374;8.584;2024-01-11T00:08:37;17.98;;;6.28;;
25559;SDS011;13450;49.374;8.584;2024-01-11T00:11:05;22.52;;;6.78;;
25559;SDS011;13450;49.374;8.584;2024-01-11T00:13:32;16.52;;;6.03;;
25559;SDS011;13450;49.374;8.584;2024-01-11T00:16:00;21.27;;;6.22;;
25559;SDS011;13450;49.374;8.584;2024-01-11T00:18:25;23.83;;;6.40;;
25559;SDS011;13450;49.374;8.584;2024-01-11T00:20:53;20.88;;;5.85;;
25559;SDS011;13450;49.374;8.584;2024-01-11T00:23:18;17.10;;;6.05;;
25559;SDS011;13450;49.374;8.584;2024-01-11T00:25:43;16.20;;;5.40;;
25559;SDS011;13450;49.374;8.584;2024-01-11T00:28:09;19.77;;;6.40;;
25559;SDS011;13450;49.374;8.584;2024-01-11T00:30:36;13.25;;;5.60;;
25559;SDS011;13450;49.374;8.584;2024-01-11T00:33:01;22.45;;;6.28;;
25559;SDS011;13450;49.374;8.584;2024-01-11T00:35:27;23.90;;;6.97;;
25559;SDS011;13450;49.374;8.584;2024-01-11T00:37:53;15.35;;;5.50;;
25559;SDS011;13450;49.374;8.584;2024-01-11T00:40:18;26.58;;;7.40;;
25559;SDS011;13450;49.374;8.584;2024-01-11T00:42:43;21.98;;;7.35;;
25559;SDS011;13450;49.374;8.584;2024-01-11T00:45:09;20.75;;;6.18;;
25559;SDS011;13450;49.374;8.584;2024-01-11T00:47:34;21.70;;;5.63;;
25559;SDS011;13450;49.374;8.584;2024-01-11T00:49:59;20.23;;;7.55;;
25559;SDS011;13450;49.374;8.584;2024-01-11T00:52:24;20.25;;;7.25;;
25559;SDS011;13450;49.374;8.584;2024-01-11T00:54:50;23.90;;;7.97;;
25559;SDS011;13450;49.374;8.584;2024-01-11T00:57:18;26.42;;;7.15;;
25559;SDS011;13450;49.374;8.584;2024-01-11T00:59:46;38.30;;;10.38;;
25559;SDS011;13450;49.374;8.584;2024-01-11T01:02:13;25.55;;;7.43;;
25559;SDS011;13450;49.374;8.584;2024-01-11T01:04:39;21.05;;;6.88;;
25559;SDS011;13450;49.374;8.584;2024-01-11T01:07:04;21.25;;;6.57;;
25559;SDS011;13450;49.374;8.584;2024-01-11T01:09:30;19.05;;;6.40;;
25559;SDS011;13450;49.374;8.584;2024-01-11T01:11:56;19.67;;;6.43;;
25559;SDS011;13450;49.374;8.584;2024-01-11T01:14:21;16.65;;;5.82;;
25559;SDS011;13450;49.374;8.584;2024-01-11T01:16:46;26.98;;;6.28;;
25559;SDS011;13450;49.374;8.584;2024-01-11T01:19:14;19.38;;;5.75;;
25559;SDS011;13450;49.374;8.584;2024-01-11T01:21:39;19.50;;;6.55;;
25559;SDS011;13450;49.374;8.584;2024-01-11T01:24:05;16.52;;;6.15;;
25559;SDS011;13450;49.374;8.584;2024-01-11T01:26:33;18.73;;;5.90;;
25559;SDS011;13450;49.374;8.584;2024-01-11T01:31:28;17.67;;;5.28;;
25559;SDS011;13450;49.374;8.584;2024-01-11T01:33:53;17.83;;;5.32;;
25559;SDS011;13450;49.374;8.584;2024-01-11T01:36:21;17.75;;;5.60;;
25559;SDS011;13450;49.374;8.584;2024-01-11T01:38:46;24.77;;;7.00;;
25559;SDS011;13450;49.374;8.584;2024-01-11T01:41:11;18.83;;;5.80;;
25559;SDS011;13450;49.374;8.584;2024-01-11T01:43:36;19.75;;;6.70;;
25559;SDS011;13450;49.374;8.584;2024-01-11T01:46:02;19.63;;;5.93;;
25559;SDS011;13450;49.374;8.584;2024-01-11T01:48:28;19.20;;;5.68;;
25559;SDS011;13450;49.374;8.584;2024-01-11T01:50:54;15.15;;;5.47;;
25559;SDS011;13450;49.374;8.584;2024-01-11T01:53:20;15.45;;;5.32;;
25559;SDS011;13450;49.374;8.584;2024-01-11T01:55:47;17.05;;;5.45;;
25559;SDS011;13450;49.374;8.584;2024-01-11T01:58:13;16.08;;;5.80;;
25559;SDS011;13450;49.374;8.584;2024-01-11T02:00:40;15.48;;;5.00;;
25559;SDS011;13450;49.374;8.584;2024-01-11T02:03:08;19.38;;;5.95;;
25559;SDS011;13450;49.374;8.584;2024-01-11T02:05:34;14.02;;;5.28;;
25559;SDS011;13450;49.374;8.584;2024-01-11T02:08:01;20.23;;;6.47;;
25559;SDS011;13450;49.374;8.584;2024-01-11T02:10:33;23.77;;;6.72;;
25559;SDS011;13450;49.374;8.584;2024-01-11T02:13:00;19.17;;;6.22;;
25559;SDS011;13450;49.374;8.584;2024-01-11T02:15:27;21.23;;;6.45;;
25559;SDS011;13450;49.374;8.584;2024-01-11T02:17:53;16.90;;;5.07;;
25559;SDS011;13450;49.374;8.584;2024-01-11T02:20:18;18.35;;;6.18;;
25559;SDS011;13450;49.374;8.584;2024-01-11T02:22:46;21.00;;;5.93;;
25559;SDS011;13450;49.374;8.584;2024-01-11T02:25:15;22.95;;;6.68;;
25559;SDS011;13450;49.374;8.584;2024-01-11T02:27:47;22.30;;;7.20;;
25559;SDS011;13450;49.374;8.584;2024-01-11T02:30:13;18.75;;;6.15;;
25559;SDS011;13450;49.374;8.584;2024-01-11T02:32:39;22.95;;;6.25;;
25559;SDS011;13450;49.374;8.584;2024-01-11T02:35:04;21.80;;;5.95;;
25559;SDS011;13450;49.374;8.584;2024-01-11T02:37:33;18.45;;;6.63;;
25559;SDS011;13450;49.374;8.584;2024-01-11T02:39:58;17.77;;;5.38;;
25559;SDS011;13450;49.374;8.584;2024-01-11T02:42:26;20.48;;;6.35;;
25559;SDS011;13450;49.374;8.584;2024-01-11T02:44:51;19.80;;;5.50;;
25559;SDS011;13450;49.374;8.584;2024-01-11T02:47:22;20.20;;;7.10;;
25559;SDS011;13450;49.374;8.584;2024-01-11T02:52:16;21.13;;;6.70;;
25559;SDS011;13450;49.374;8.584;2024-01-11T02:54:41;20.58;;;6.35;;
25559;SDS011;13450;49.374;8.584;2024-01-11T02:57:06;15.07;;;6.35;;
25559;SDS011;13450;49.374;8.584;2024-01-11T02:59:34;23.75;;;6.88;;
25559;SDS011;13450;49.374;8.584;2024-01-11T03:01:59;22.15;;;6.78;;
25559;SDS011;13450;49.374;8.584;2024-01-11T03:04:25;18.33;;;6.60;;
25559;SDS011;13450;49.374;8.584;2024-01-11T03:06:50;17.45;;;5.72;;
25559;SDS011;13450;49.374;8.584;2024-01-11T03:09:16;19.10;;;6.07;;
25559;SDS011;13450;49.374;8.584;2024-01-11T03:11:41;21.15;;;5.75;;
25559;SDS011;13450;49.374;8.584;2024-01-11T03:14:06;18.95;;;6.30;;
25559;SDS011;13450;49.374;8.584;2024-01-11T03:16:31;17.95;;;6.70;;
25559;SDS011;13450;49.374;8.584;2024-01-11T03:18:59;20.75;;;6.88;;
25559;SDS011;13450;49.374;8.584;2024-01-11T03:21:25;18.25;;;5.75;;
25559;SDS011;13450;49.374;8.584;2024-01-11T03:23:50;18.90;;;6.55;;
25559;SDS011;13450;49.374;8.584;2024-01-11T03:26:15;21.30;;;6.63;;
25559;SDS011;13450;49.374;8.584;2024-01-11T03:28:41;20.27;;;6.32;;
25559;SDS011;13450;49.374;8.584;2024-01-11T03:31:10;13.80;;;5.22;;
25559;SDS011;13450;49.374;8.584;2024-01-11T03:33:35;17.50;;;5.72;;
25559;SDS011;13450;49.374;8.584;2024-01-11T03:36:07;18.42;;;5.35;;
25559;SDS011;13450;49.374;8.584;2024-01-11T03:38:36;24.13;;;6.43;;
25559;SDS011;13450;49.374;8.584;2024-01-11T03:41:01;12.70;;;4.60;;
25559;SDS011;13450;49.374;8.584;2024-01-11T03:43:27;21.50;;;6.53;;
25559;SDS011;13450;49.374;8.584;2024-01-11T03:45:53;20.70;;;6.63;;
25559;SDS011;13450;49.374;8.584;2024-01-11T03:51:40;16.08;;;5.90;;
25559;SDS011;13450;49.374;8.584;2024-01-11T03:54:05;19.42;;;6.28;;
25559;SDS011;13450;49.374;8.584;2024-01-11T03:56:31;19.35;;;6.40;;
25559;SDS011;13450;49.374;8.584;2024-01-11T03:58:56;17.30;;;5.60;;
25559;SDS011;13450;49.374;8.584;2024-01-11T04:01:21;24.25;;;6.63;;
25559;SDS011;13450;49.374;8.584;2024-01-11T04:03:47;18.20;;;6.30;;
25559;SDS011;13450;49.374;8.584;2024-01-11T04:06:19;20.90;;;5.82;;
25559;SDS011;13450;49.374;8.584;2024-01-11T04:08:46;19.70;;;6.45;;
25559;SDS011;13450;49.374;8.584;2024-01-11T04:11:11;17.73;;;5.72;;
25559;SDS011;13450;49.374;8.584;2024-01-11T04:13:37;18.10;;;5.88;;
25559;SDS011;13450;49.374;8.584;2024-01-11T04:16:05;19.17;;;6.82;;
25559;SDS011;13450;49.374;8.584;2024-01-11T04:18:31;14.02;;;4.75;;
25559;SDS011;13450;49.374;8.584;2024-01-11T04:20:57;22.58;;;6.68;;
25559;SDS011;13450;49.374;8.584;2024-01-11T04:23:22;22.20;;;6.25;;
25559;SDS011;13450;49.374;8.584;2024-01-11T04:25:48;23.83;;;6.68;;
25559;SDS011;13450;49.374;8.584;2024-01-11T04:28:13;19.70;;;6.90;;
25559;SDS011;13450;49.374;8.584;2024-01-11T04:30:38;22.42;;;6.90;;
25559;SDS011;13450;49.374;8.584;2024-01-11T04:33:04;17.02;;;5.70;;
25559;SDS011;13450;49.374;8.584;2024-01-11T04:35:29;15.98;;;6.13;;
25559;SDS011;13450;49.374;8.584;2024-01-11T04:37:54;19.02;;;6.43;;
25559;SDS011;13450;49.374;8.584;2024-01-11T04:40:19;18.80;;;6.13;;
25559;SDS011;13450;49.374;8.584;2024-01-11T04:42:45;22.92;;;6.07;;
25559;SDS011;13450;49.374;8.584;2024-01-11T04:45:10;17.85;;;6.47;;
25559;SDS011;13450;49.374;8.584;2024-01-11T04:47:35;17.20;;;6.25;;
25559;SDS011;13450;49.374;8.584;2024-01-11T04:50:02;22.42;;;5.65;;
25559;SDS011;13450;49.374;8.584;2024-01-11T04:52:29;16.45;;;5.18;;
25559;SDS011;13450;49.374;8.584;2024-01-11T04:54:54;16.10;;;5.30;;
25559;SDS011;13450;49.374;8.584;2024-01-11T04:57:19;21.27;;;5.40;;
25559;SDS011;13450;49.374;8.584;2024-01-11T04:59:45;23.08;;;6.75;;
25559;SDS011;13450;49.374;8.584;2024-01-11T05:02:10;23.77;;;7.55;;
25559;SDS011;13450;49.374;8.584;2024-01-11T05:04:35;22.73;;;6.25;;
25559;SDS011;13450;49.374;8.584;2024-01-11T05:07:00;15.45;;;5.07;;
25559;SDS011;13450;49.374;8.584;2024-01-11T05:09:28;17.63;;;6.28;;
25559;SDS011;13450;49.374;8.584;2024-01-11T05:11:53;18.40;;;6.40;;
25559;SDS011;13450;49.374;8.584;2024-01-11T05:14:21;17.80;;;6.07;;
25559;SDS011;13450;49.374;8.584;2024-01-11T05:16:48;21.20;;;5.97;;
25559;SDS011;13450;49.374;8.584;2024-01-11T05:19:14;19.38;;;6.28;;
25559;SDS011;13450;49.374;8.584;2024-01-11T05:21:39;28.77;;;7.00;;
25559;SDS011;13450;49.374;8.584;2024-01-11T05:24:04;16.73;;;6.22;;
25559;SDS011;13450;49.374;8.584;2024-01-11T05:26:30;19.40;;;5.65;;
25559;SDS011;13450;49.374;8.584;2024-01-11T05:28:55;14.63;;;4.88;;
25559;SDS011;13450;49.374;8.584;2024-01-11T05:31:20;18.35;;;5.28;;
25559;SDS011;13450;49.374;8.584;2024-01-11T05:33:45;15.23;;;5.53;;
25559;SDS011;13450;49.374;8.584;2024-01-11T05:36:11;16.60;;;5.82;;
25559;SDS011;13450;49.374;8.584;2024-01-11T05:38:37;16.83;;;5.40;;
25559;SDS011;13450;49.374;8.584;2024-01-11T05:41:03;16.98;;;5.53;;
25559;SDS011;13450;49.374;8.584;2024-01-11T05:43:29;17.48;;;6.18;;
25559;SDS011;13450;49.374;8.584;2024-01-11T05:45:56;18.45;;;6.38;;
25559;SDS011;13450;49.374;8.584;2024-01-11T05:48:24;20.98;;;6.68;;
25559;SDS011;13450;49.374;8.584;2024-01-11T05:50:49;15.60;;;5.72;;
25559;SDS011;13450;49.374;8.584;2024-01-11T05:53:14;20.80;;;6.75;;
25559;SDS011;13450;49.374;8.584;2024-01-11T05:55:40;17.65;;;6.38;;
25559;SDS011;13450;49.374;8.584;2024-01-11T05:58:08;21.27;;;7.60;;
25559;SDS011;13450;49.374;8.584;2024-01-11T06:00:33;20.00;;;6.43;;
25559;SDS011;13450;49.374;8.584;2024-01-11T06:02:58;24.35;;;7.35;;
25559;SDS011;13450;49.374;8.584;2024-01-11T06:05:25;21.48;;;6.88;;
25559;SDS011;13450;49.374;8.584;2024-01-11T06:07:50;25.65;;;7.00;;
25559;SDS011;13450;49.374;8.584;2024-01-11T06:10:16;21.92;;;7.43;;
25559;SDS011;13450;49.374;8.584;2024-01-11T06:12:42;20.15;;;7.63;;
25559;SDS011;13450;49.374;8.584;2024-01-11T06:15:07;20.70;;;6.18;;
25559;SDS011;13450;49.374;8.584;2024-01-11T06:17:33;19.58;;;6.82;;
25559;SDS011;13450;49.374;8.584;2024-01-11T06:19:58;26.40;;;8.50;;
25559;SDS011;13450;49.374;8.584;2024-01-11T06:22:23;21.35;;;7.60;;
25559;SDS011;13450;49.374;8.584;2024-01-11T06:24:48;20.52;;;7.00;;
25559;SDS011;13450;49.374;8.584;2024-01-11T06:27:14;60.08;;;12.60;;
25559;SDS011;13450;49.374;8.584;2024-01-11T06:29:39;33.28;;;9.70;;
25559;SDS011;13450;49.374;8.584;2024-01-11T06:32:04;23.38;;;7.07;;
25559;SDS011;13450;49.374;8.584;2024-01-11T06:34:30;22.48;;;7.90;;
25559;SDS011;13450;49.374;8.584;2024-01-11T06:36:55;21.70;;;8.05;;
25559;SDS011;13450;49.374;8.584;2024-01-11T06:39:21;19.20;;;6.85;;
25559;SDS011;13450;49.374;8.584;2024-01-11T06:41:46;14.93;;;6.00;;
25559;SDS011;13450;49.374;8.584;2024-01-11T06:44:11;18.90;;;6.40;;
25559;SDS011;13450;49.374;8.584;2024-01-11T06:46:36;21.92;;;6.50;;
25559;SDS011;13450;49.374;8.584;2024-01-11T06:49:04;17.38;;;6.15;;
25559;SDS011;13450;49.374;8.584;2024-01-11T06:51:29;20.98;;;6.93;;
25559;SDS011;13450;49.374;8.584;2024-01-11T06:53:55;34.90;;;10.18;;
25559;SDS011;13450;49.374;8.584;2024-01-11T06:56:20;55.10;;;18.48;;
25559;SDS011;13450;49.374;8.584;2024-01-11T06:58:48;44.13;;;15.55;;
25559;SDS011;13450;49.374;8.584;2024-01-11T07:01:17;32.40;;;12.18;;
25559;SDS011;13450;49.374;8.584;2024-01-11T07:03:42;24.48;;;8.05;;
25559;SDS011;13450;49.374;8.584;2024-01-11T07:06:10;27.30;;;6.85;;
25559;SDS011;13450;49.374;8.584;2024-01-11T07:08:37;22.88;;;6.35;;
25559;SDS011;13450;49.374;8.584;2024-01-11T07:11:03;17.73;;;6.93;;
25559;SDS011;13450;49.374;8.584;2024-01-11T07:13:29;19.80;;;6.65;;
25559;SDS011;13450;49.374;8.584;2024-01-11T07:15:57;25.00;;;8.30;;
25559;SDS011;13450;49.374;8.584;2024-01-11T07:18:23;17.90;;;7.05;;
25559;SDS011;13450;49.374;8.584;2024-01-11T07:20:50;25.60;;;8.43;;
25559;SDS011;13450;49.374;8.584;2024-01-11T07:23:19;18.08;;;6.32;;
25559;SDS011;13450;49.374;8.584;2024-01-11T07:25:44;26.15;;;7.45;;
25559;SDS011;13450;49.374;8.584;2024-01-11T07:28:09;21.33;;;6.90;;
25559;SDS011;13450;49.374;8.584;2024-01-11T07:30:37;16.77;;;6.22;;
25559;SDS011;13450;49.374;8.584;2024-01-11T07:33:02;25.23;;;7.97;;
25559;SDS011;13450;49.374;8.584;2024-01-11T07:35:29;22.48;;;8.02;;
25559;SDS011;13450;49.374;8.584;2024-01-11T07:37:57;18.90;;;7.35;;
25559;SDS011;13450;49.374;8.584;2024-01-11T07:40:23;19.42;;;6.78;;
25559;SDS011;13450;49.374;8.584;2024-01-11T07:42:48;22.42;;;6.78;;
25559;SDS011;13450;49.374;8.584;2024-01-11T07:45:14;26.60;;;7.88;;
25559;SDS011;13450;49.374;8.584;2024-01-11T07:47:40;23.17;;;7.60;;
25559;SDS011;13450;49.374;8.584;2024-01-11T07:50:08;30.95;;;8.40;;
25559;SDS011;13450;49.374;8.584;2024-01-11T07:52:36;26.52;;;8.52;;
25559;SDS011;13450;49.374;8.584;2024-01-11T07:55:02;21.17;;;8.20;;
25559;SDS011;13450;49.374;8.584;2024-01-11T07:57:33;20.30;;;6.90;;
25559;SDS011;13450;49.374;8.584;2024-01-11T08:00:02;18.88;;;6.13;;
25559;SDS011;13450;49.374;8.584;2024-01-11T08:02:33;20.52;;;6.18;;
25559;SDS011;13450;49.374;8.584;2024-01-11T08:04:59;22.27;;;7.85;;
25559;SDS011;13450;49.374;8.584;2024-01-11T08:07:25;25.60;;;7.10;;
25559;SDS011;13450;49.374;8.584;2024-01-11T08:09:51;23.23;;;8.27;;
25559;SDS011;13450;49.374;8.584;2024-01-11T08:12:16;30.48;;;8.10;;
25559;SDS011;13450;49.374;8.584;2024-01-11T08:14:42;25.27;;;7.82;;
25559;SDS011;13450;49.374;8.584;2024-01-11T08:17:08;30.10;;;8.77;;
25559;SDS011;13450;49.374;8.584;2024-01-11T08:19:33;26.08;;;8.07;;
25559;SDS011;13450;49.374;8.584;2024-01-11T08:21:59;32.03;;;10.10;;
25559;SDS011;13450;49.374;8.584;2024-01-11T08:24:25;18.63;;;7.53;;
25559;SDS011;13450;49.374;8.584;2024-01-11T08:26:50;22.35;;;8.02;;
25559;SDS011;13450;49.374;8.584;2024-01-11T08:29:19;27.95;;;8.95;;
25559;SDS011;13450;49.374;8.584;2024-01-11T08:31:45;35.30;;;9.35;;
25559;SDS011;13450;49.374;8.584;2024-01-11T08:34:11;43.08;;;9.65;;
25559;SDS011;13450;49.374;8.584;2024-01-11T08:36:41;43.90;;;10.90;;
25559;SDS011;13450;49.374;8.584;2024-01-11T08:39:07;30.38;;;10.57;;
25559;SDS011;13450;49.374;8.584;2024-01-11T08:41:36;27.00;;;8.63;;
25559;SDS011;13450;49.374;8.584;2024-01-11T08:44:02;25.25;;;9.25;;
25559;SDS011;13450;49.374;8.584;2024-01-11T08:46:28;38.80;;;10.88;;
25559;SDS011;13450;49.374;8.584;2024-01-11T08:48:55;29.30;;;8.80;;
25559;SDS011;13450;49.374;8.584;2024-01-11T08:51:21;37.72;;;12.18;;
25559;SDS011;13450;49.374;8.584;2024-01-11T08:53:47;32.75;;;11.15;;
25559;SDS011;13450;49.374;8.584;2024-01-11T08:56:14;21.50;;;8.38;;
25559;SDS011;13450;49.374;8.584;2024-01-11T08:58:41;44.88;;;12.52;;
25559;SDS011;13450;49.374;8.584;2024-01-11T09:01:07;22.80;;;8.32;;
25559;SDS011;13450;49.374;8.584;2024-01-11T09:03:33;27.08;;;8.98;;
25559;SDS011;13450;49.374;8.584;2024-01-11T09:05:59;29.77;;;8.82;;
25559;SDS011;13450;49.374;8.584;2024-01-11T09:08:24;35.70;;;10.73;;
25559;SDS011;13450;49.374;8.584;2024-01-11T09:10:50;31.73;;;10.35;;
25559;SDS011;13450;49.374;8.584;2024-01-11T09:13:15;33.30;;;11.02;;
25559;SDS011;13450;49.374;8.584;2024-01-11T09:15:40;36.00;;;11.63;;
25559;SDS011;13450;49.374;8.584;2024-01-11T09:18:06;29.20;;;9.52;;
25559;SDS011;13450;49.374;8.584;2024-01-11T09:20:32;29.02;;;9.82;;
25559;SDS011;13450;49.374;8.584;2024-01-11T09:22:58;30.48;;;9.90;;
25559;SDS011;13450;49.374;8.584;2024-01-11T09:25:23;26.98;;;8.65;;
25559;SDS011;13450;49.374;8.584;2024-01-11T09:27:49;26.90;;;10.30;;
25559;SDS011;13450;49.374;8.584;2024-01-11T09:30:14;28.02;;;9.07;;
25559;SDS011;13450;49.374;8.584;2024-01-11T09:32:40;29.08;;;8.68;;
25559;SDS011;13450;49.374;8.584;2024-01-11T09:35:07;19.50;;;7.15;;
25559;SDS011;13450;49.374;8.584;2024-01-11T09:37:33;30.90;;;9.25;;
25559;SDS011;13450;49.374;8.584;2024-01-11T09:39:58;29.83;;;10.07;;
25559;SDS011;13450;49.374;8.584;2024-01-11T09:42:25;31.02;;;9.77;;
25559;SDS011;13450;49.374;8.584;2024-01-11T09:44:51;23.05;;;9.02;;
25559;SDS011;13450;49.374;8.584;2024-01-11T09:47:19;29.33;;;9.18;;
25559;SDS011;13450;49.374;8.584;2024-01-11T09:49:46;29.10;;;10.60;;
25559;SDS011;13450;49.374;8.584;2024-01-11T09:52:15;21.70;;;8.27;;
25559;SDS011;13450;49.374;8.584;2024-01-11T09:54:44;29.10;;;9.25;;
25559;SDS011;13450;49.374;8.584;2024-01-11T09:57:10;26.75;;;8.77;;
25559;SDS011;13450;49.374;8.584;2024-01-11T09:59:35;28.10;;;9.00;;
25559;SDS011;13450;49.374;8.584;2024-01-11T10:02:06;28.38;;;9.95;;
25559;SDS011;13450;49.374;8.584;2024-01-11T10:04:41;28.67;;;9.65;;
25559;SDS011;13450;49.374;8.584;2024-01-11T10:07:07;22.52;;;8.07;;
25559;SDS011;13450;49.374;8.584;2024-01-11T10:09:34;25.27;;;8.98;;
25559;SDS011;13450;49.374;8.584;2024-01-11T10:12:00;32.63;;;9.43;;
25559;SDS011;13450;49.374;8.584;2024-01-11T10:14:25;27.73;;;9.80;;
25559;SDS011;13450;49.374;8.584;2024-01-11T10:16:51;26.23;;;9.80;;
25559;SDS011;13450;49.374;8.584;2024-01-11T10:19:21;29.00;;;9.57;;
25559;SDS011;13450;49.374;8.584;2024-01-11T10:21:46;23.33;;;8.93;;
25559;SDS011;13450;49.374;8.584;2024-01-11T10:24:16;26.13;;;9.68;;
25559;SDS011;13450;49.374;8.584;2024-01-11T10:26:43;28.00;;;9.60;;
25559;SDS011;13450;49.374;8.584;2024-01-11T10:29:08;30.15;;;10.45;;
25559;SDS011;13450;49.374;8.584;2024-01-11T10:31:38;32.33;;;10.20;;
25559;SDS011;13450;49.374;8.584;2024-01-11T10:34:06;29.95;;;10.32;;
25559;SDS011;13450;49.374;8.584;2024-01-11T10:36:31;30.40;;;11.55;;
25559;SDS011;13450;49.374;8.584;2024-01-11T10:38:57;27.25;;;10.95;;
25559;SDS011;13450;49.374;8.584;2024-01-11T10:41:29;31.08;;;11.27;;
25559;SDS011;13450;49.374;8.584;2024-01-11T10:43:59;33.63;;;12.02;;
25559;SDS011;13450;49.374;8.584;2024-01-11T10:46:28;27.48;;;11.57;;
25559;SDS011;13450;49.374;8.584;2024-01-11T10:48:56;31.80;;;11.68;;
25559;SDS011;13450;49.374;8.584;2024-01-11T10:51:24;28.85;;;11.38;;
25559;SDS011;13450;49.374;8.584;2024-01-11T10:53:53;33.42;;;12.32;;
25559;SDS011;13450;49.374;8.584;2024-01-11T10:56:19;28.45;;;11.75;;
25559;SDS011;13450;49.374;8.584;2024-01-11T10:58:45;30.38;;;12.18;;
25559;SDS011;13450;49.374;8.584;2024-01-11T11:01:12;31.83;;;12.52;;
25559;SDS011;13450;49.374;8.584;2024-01-11T11:03:40;28.02;;;11.85;;
25559;SDS011;13450;49.374;8.584;2024-01-11T11:06:07;25.73;;;11.27;;
25559;SDS011;13450;49.374;8.584;2024-01-11T11:08:34;26.42;;;10.57;;
25559;SDS011;13450;49.374;8.584;2024-01-11T11:11:04;27.15;;;11.57;;
25559;SDS011;13450;49.374;8.584;2024-01-11T11:13:35;25.60;;;11.60;;
25559;SDS011;13450;49.374;8.584;2024-01-11T11:16:01;37.70;;;14.27;;
25559;SDS011;13450;49.374;8.584;2024-01-11T11:18:30;27.27;;;11.30;;
25559;SDS011;13450;49.374;8.584;2024-01-11T11:21:01;27.15;;;11.85;;
25559;SDS011;13450;49.374;8.584;2024-01-11T11:23:26;21.20;;;10.75;;
25559;SDS011;13450;49.374;8.584;2024-01-11T11:25:53;25.70;;;11.73;;
25559;SDS011;13450;49.374;8.584;2024-01-11T11:28:20;25.48;;;11.70;;
25559;SDS011;13450;49.374;8.584;2024-01-11T11:30:47;25.67;;;12.15;;
25559;SDS011;13450;49.374;8.584;2024-01-11T11:33:18;24.70;;;11.70;;
25559;SDS011;13450;49.374;8.584;2024-01-11T11:35:43;26.98;;;12.48;;
25559;SDS011;13450;49.374;8.584;2024-01-11T11:38:21;22.63;;;10.65;;
25559;SDS011;13450;49.374;8.584;2024-01-11T11:40:48;25.75;;;12.60;;
25559;SDS011;13450;49.374;8.584;2024-01-11T11:43:16;32.75;;;14.25;;
25559;SDS011;13450;49.374;8.584;2024-01-11T11:45:42;39.67;;;14.10;;
25559;SDS011;13450;49.374;8.584;2024-01-11T11:51:02;24.38;;;11.65;;
25559;SDS011;13450;49.374;8.584;2024-01-11T11:53:33;25.60;;;12.00;;
25559;SDS011;13450;49.374;8.584;2024-01-11T11:55:58;27.57;;;12.33;;
25559;SDS011;13450;49.374;8.584;2024-01-11T11:58:31;25.30;;;11.93;;
25559;SDS011;13450;49.374;8.584;2024-01-11T12:01:00;27.25;;;14.23;;
25559;SDS011;13450;49.374;8.584;2024-01-11T12:03:28;41.33;;;17.40;;
25559;SDS011;13450;49.374;8.584;2024-01-11T12:05:58;26.83;;;11.77;;
25559;SDS011;13450;49.374;8.584;2024-01-11T12:08:26;31.83;;;13.30;;
25559;SDS011;13450;49.374;8.584;2024-01-11T12:10:52;128.50;;;49.83;;
25559;SDS011;13450;49.374;8.584;2024-01-11T12:13:18;30.35;;;13.43;;
25559;SDS011;13450;49.374;8.584;2024-01-11T12:15:46;37.70;;;17.20;;
25559;SDS011;13450;49.374;8.584;2024-01-11T12:18:11;33.72;;;12.98;;
25559;SDS011;13450;49.374;8.584;2024-01-11T12:20:37;27.73;;;13.38;;
25559;SDS011;13450;49.374;8.584;2024-01-11T12:23:02;25.05;;;12.18;;
25559;SDS011;13450;49.374;8.584;2024-01-11T12:25:28;23.38;;;12.02;;
25559;SDS011;13450;49.374;8.584;2024-01-11T12:27:56;27.35;;;13.40;;
25559;SDS011;13450;49.374;8.584;2024-01-11T12:30:22;23.48;;;11.00;;
25559;SDS011;13450;49.374;8.584;2024-01-11T12:32:50;23.52;;;11.65;;
25559;SDS011;13450;49.374;8.584;2024-01-11T12:35:18;26.25;;;12.52;;
25559;SDS011;13450;49.374;8.584;2024-01-11T12:37:53;59.33;;;31.85;;
25559;SDS011;13450;49.374;8.584;2024-01-11T12:40:32;26.30;;;12.00;;
25559;SDS011;13450;49.374;8.584;2024-01-11T12:43:00;28.27;;;12.97;;
25559;SDS011;13450;49.374;8.584;2024-01-11T12:45:27;27.50;;;13.20;;
25559;SDS011;13450;49.374;8.584;2024-01-11T12:47:53;29.13;;;13.18;;
25559;SDS011;13450;49.374;8.584;2024-01-11T12:50:21;26.92;;;12.80;;
25559;SDS011;13450;49.374;8.584;2024-01-11T12:52:47;24.27;;;11.95;;
25559;SDS011;13450;49.374;8.584;2024-01-11T12:55:30;27.17;;;12.88;;
25559;SDS011;13450;49.374;8.584;2024-01-11T12:58:07;27.50;;;13.88;;
25559;SDS011;13450;49.374;8.584;2024-01-11T13:00:36;25.90;;;13.07;;
25559;SDS011;13450;49.374;8.584;2024-01-11T13:03:02;28.38;;;12.88;;
25559;SDS011;13450;49.374;8.584;2024-01-11T13:05:31;36.85;;;16.90;;
25559;SDS011;13450;49.374;8.584;2024-01-11T13:08:07;28.50;;;13.95;;
25559;SDS011;13450;49.374;8.584;2024-01-11T13:10:33;29.35;;;14.23;;
25559;SDS011;13450;49.374;8.584;2024-01-11T13:13:00;30.42;;;13.95;;
25559;SDS011;13450;49.374;8.584;2024-01-11T13:15:26;26.88;;;13.05;;
25559;SDS011;13450;49.374;8.584;2024-01-11T13:17:51;29.58;;;13.98;;
25559;SDS011;13450;49.374;8.584;2024-01-11T13:20:18;28.83;;;13.52;;
25559;SDS011;13450;49.374;8.584;2024-01-11T13:22:43;29.05;;;13.73;;
25559;SDS011;13450;49.374;8.584;2024-01-11T13:25:09;27.88;;;13.27;;
25559;SDS011;13450;49.374;8.584;2024-01-11T13:27:34;28.27;;;12.55;;
25559;SDS011;13450;49.374;8.584;2024-01-11T13:30:00;27.92;;;13.45;;
25559;SDS011;13450;49.374;8.584;2024-01-11T13:32:25;31.52;;;13.75;;
25559;SDS011;13450;49.374;8.584;2024-01-11T13:34:51;25.55;;;12.95;;
25559;SDS011;13450;49.374;8.584;2024-01-11T13:37:18;28.90;;;13.10;;
25559;SDS011;13450;49.374;8.584;2024-01-11T13:39:43;27.42;;;13.07;;
25559;SDS011;13450;49.374;8.584;2024-01-11T13:42:09;27.50;;;13.15;;
25559;SDS011;13450;49.374;8.584;2024-01-11T13:44:34;26.85;;;13.35;;
25559;SDS011;13450;49.374;8.584;2024-01-11T13:47:02;27.98;;;13.15;;
25559;SDS011;13450;49.374;8.584;2024-01-11T13:49:28;27.98;;;12.65;;
25559;SDS011;13450;49.374;8.584;2024-01-11T13:51:53;29.63;;;14.20;;
25559;SDS011;13450;49.374;8.584;2024-01-11T13:54:19;26.92;;;13.40;;
25559;SDS011;13450;49.374;8.584;2024-01-11T13:56:44;33.20;;;15.68;;
25559;SDS011;13450;49.374;8.584;2024-01-11T13:59:09;28.50;;;13.65;;
25559;SDS011;13450;49.374;8.584;2024-01-11T14:01:37;53.75;;;23.42;;
25559;SDS011;13450;49.374;8.584;2024-01-11T14:04:02;67.80;;;28.65;;
25559;SDS011;13450;49.374;8.584;2024-01-11T14:06:28;40.08;;;19.08;;
25559;SDS011;13450;49.374;8.584;2024-01-11T14:08:56;26.57;;;12.53;;
25559;SDS011;13450;49.374;8.584;2024-01-11T14:11:21;28.00;;;12.80;;
25559;SDS011;13450;49.374;8.584;2024-01-11T14:13:47;35.20;;;16.23;;
25559;SDS011;13450;49.374;8.584;2024-01-11T14:16:13;30.33;;;15.18;;
25559;SDS011;13450;49.374;8.584;2024-01-11T14:18:40;31.67;;;13.48;;
25559;SDS011;13450;49.374;8.584;2024-01-11T14:21:06;30.83;;;12.90;;
25559;SDS011;13450;49.374;8.584;2024-01-11T14:23:31;30.70;;;13.05;;
25559;SDS011;13450;49.374;8.584;2024-01-11T14:25:56;27.63;;;12.27;;
25559;SDS011;13450;49.374;8.584;2024-01-11T14:28:22;29.95;;;13.20;;
25559;SDS011;13450;49.374;8.584;2024-01-11T14:30:47;31.00;;;12.70;;
25559;SDS011;13450;49.374;8.584;2024-01-11T14:33:13;28.85;;;12.52;;
25559;SDS011;13450;49.374;8.584;2024-01-11T14:35:39;26.50;;;11.98;;
25559;SDS011;13450;49.374;8.584;2024-01-11T14:38:04;29.50;;;11.95;;